RYR536 LSZS-LMML
Flight info
| Callsign | RYR536 |
|---|---|
| Flight time | 1h 53m |
| Altitude | 19000 |
| Route | RONAG L613 VALAV/N0461F370 L613 DIBAX/N0457F390 DCT GIKIN DCT ALOKU DCT MARON DCT EKOLA L12 GZO |
| Aircraft | B738/M-SDE2E3FGHIRWXY/LB1 |
Departure
| Time | 2026-05-06 15:06 |
|---|---|
| Airport | Engadin Airport (LSZS) |
Arrival
| Time | 2026-05-06 17:00 |
|---|---|
| Airport | Malta International Airport (LMML) |
| Time | Latitude | Longitude | Altitude | Speed | Heading |
|---|---|---|---|---|---|
| 2026-05-06 14:36 | 46.53057 | 9.87985 | 5610 ft | 0 kts | 297° |
| 2026-05-06 15:01 | 46.53058 | 9.87974 | 5612 ft | 3 kts | 272° |
| 2026-05-06 15:02 | 46.53035 | 9.87944 | 5607 ft | 5 kts | 194° |
| 2026-05-06 15:02 | 46.53002 | 9.87962 | 5608 ft | 5 kts | 137° |
| 2026-05-06 15:02 | 46.52971 | 9.88026 | 5609 ft | 13 kts | 121° |
| 2026-05-06 15:02 | 46.52956 | 9.88155 | 5610 ft | 14 kts | 42° |
| 2026-05-06 15:03 | 46.53041 | 9.88227 | 5612 ft | 14 kts | 29° |
| 2026-05-06 15:03 | 46.53151 | 9.88316 | 5609 ft | 20 kts | 29° |
| 2026-05-06 15:03 | 46.53269 | 9.88412 | 5617 ft | 19 kts | 31° |
| 2026-05-06 15:03 | 46.53386 | 9.88507 | 5611 ft | 21 kts | 31° |
| 2026-05-06 15:04 | 46.53513 | 9.88611 | 5611 ft | 20 kts | 28° |
| 2026-05-06 15:04 | 46.53636 | 9.88711 | 5610 ft | 20 kts | 29° |
| 2026-05-06 15:04 | 46.53759 | 9.88810 | 5610 ft | 20 kts | 29° |
| 2026-05-06 15:04 | 46.53878 | 9.88908 | 5611 ft | 19 kts | 30° |
| 2026-05-06 15:05 | 46.53993 | 9.89004 | 5614 ft | 19 kts | 31° |
| 2026-05-06 15:05 | 46.54107 | 9.89041 | 5619 ft | 17 kts | 323° |
| 2026-05-06 15:05 | 46.54099 | 9.88939 | 5615 ft | 0 kts | 211° |
| 2026-05-06 15:05 | 46.54090 | 9.88932 | 5613 ft | 17 kts | 208° |
| 2026-05-06 15:06 | 46.53665 | 9.88594 | 5611 ft | 119 kts | 208° |
| 2026-05-06 15:06 | 46.52712 | 9.87821 | 5785 ft | 185 kts | 208° |
| 2026-05-06 15:06 | 46.51614 | 9.86819 | 7056 ft | 177 kts | 212° |
| 2026-05-06 15:06 | 46.50611 | 9.85694 | 8068 ft | 194 kts | 220° |
| 2026-05-06 15:07 | 46.49547 | 9.84347 | 8965 ft | 204 kts | 218° |
| 2026-05-06 15:07 | 46.48460 | 9.82984 | 10026 ft | 206 kts | 218° |
| 2026-05-06 15:07 | 46.47382 | 9.81654 | 11083 ft | 205 kts | 217° |
| 2026-05-06 15:07 | 46.46224 | 9.80251 | 11739 ft | 226 kts | 218° |
| 2026-05-06 15:08 | 46.45019 | 9.78805 | 12879 ft | 222 kts | 218° |
| 2026-05-06 15:08 | 46.43822 | 9.77385 | 13901 ft | 225 kts | 217° |
| 2026-05-06 15:08 | 46.42585 | 9.75927 | 14713 ft | 232 kts | 217° |
| 2026-05-06 15:08 | 46.41346 | 9.74476 | 15706 ft | 232 kts | 217° |
| 2026-05-06 15:09 | 46.40070 | 9.72980 | 16544 ft | 241 kts | 217° |
| 2026-05-06 15:09 | 46.38802 | 9.71378 | 17671 ft | 243 kts | 228° |
| 2026-05-06 15:09 | 46.38016 | 9.69155 | 18550 ft | 262 kts | 250° |
| 2026-05-06 15:09 | 46.37890 | 9.66353 | 18899 ft | 302 kts | 272° |
| 2026-05-06 15:10 | 46.38625 | 9.63261 | 18928 ft | 351 kts | 296° |
| 2026-05-06 15:10 | 46.40270 | 9.60375 | 18950 ft | 392 kts | 311° |
| 2026-05-06 15:10 | 46.42611 | 9.57994 | 18894 ft | 432 kts | 332° |
| 2026-05-06 15:10 | 46.45606 | 9.57045 | 19474 ft | 448 kts | 358° |
| 2026-05-06 15:11 | 46.48633 | 9.57902 | 20779 ft | 443 kts | 21° |
| 2026-05-06 15:11 | 46.51188 | 9.60270 | 22185 ft | 433 kts | 45° |
| 2026-05-06 15:11 | 46.53077 | 9.63576 | 23585 ft | 419 kts | 54° |
| 2026-05-06 15:11 | 46.54987 | 9.66710 | 24756 ft | 411 kts | 45° |
| 2026-05-06 15:12 | 46.57076 | 9.69408 | 25879 ft | 401 kts | 40° |
| 2026-05-06 15:12 | 46.59225 | 9.71965 | 27053 ft | 390 kts | 43° |
| 2026-05-06 15:12 | 46.60892 | 9.74989 | 27807 ft | 383 kts | 66° |
| 2026-05-06 15:12 | 46.62095 | 9.78510 | 28134 ft | 396 kts | 70° |
| 2026-05-06 15:13 | 46.63273 | 9.82185 | 28239 ft | 415 kts | 70° |
| 2026-05-06 15:13 | 46.64519 | 9.86063 | 28428 ft | 431 kts | 69° |
| 2026-05-06 15:13 | 46.65842 | 9.90090 | 28557 ft | 448 kts | 69° |
| 2026-05-06 15:13 | 46.67233 | 9.94247 | 28702 ft | 463 kts | 68° |
| 2026-05-06 15:14 | 46.68678 | 9.98518 | 28844 ft | 477 kts | 68° |
| 2026-05-06 15:14 | 46.70168 | 10.02903 | 28922 ft | 490 kts | 67° |
| 2026-05-06 15:14 | 46.71676 | 10.07359 | 29019 ft | 501 kts | 67° |
| 2026-05-06 15:14 | 46.73178 | 10.11995 | 29152 ft | 509 kts | 73° |
| 2026-05-06 15:15 | 46.73922 | 10.16977 | 29266 ft | 502 kts | 94° |
| 2026-05-06 15:15 | 46.73632 | 10.21990 | 29437 ft | 492 kts | 110° |
| 2026-05-06 15:15 | 46.72514 | 10.26631 | 29680 ft | 480 kts | 125° |
| 2026-05-06 15:15 | 46.70759 | 10.30680 | 30115 ft | 465 kts | 137° |
| 2026-05-06 15:16 | 46.68554 | 10.33993 | 30621 ft | 446 kts | 150° |
| 2026-05-06 15:16 | 46.66008 | 10.36443 | 31116 ft | 435 kts | 158° |
| 2026-05-06 15:16 | 46.63408 | 10.38705 | 31556 ft | 438 kts | 155° |
| 2026-05-06 15:16 | 46.60970 | 10.41464 | 31948 ft | 449 kts | 147° |
| 2026-05-06 15:17 | 46.58673 | 10.44540 | 32438 ft | 448 kts | 146° |
| 2026-05-06 15:17 | 46.56392 | 10.47616 | 32938 ft | 447 kts | 146° |
| 2026-05-06 15:17 | 46.54107 | 10.50670 | 33340 ft | 446 kts | 147° |
| 2026-05-06 15:17 | 46.51822 | 10.53703 | 33737 ft | 445 kts | 147° |
| 2026-05-06 15:18 | 46.49539 | 10.56725 | 34085 ft | 444 kts | 147° |
| 2026-05-06 15:18 | 46.47251 | 10.59745 | 34326 ft | 444 kts | 147° |
| 2026-05-06 15:18 | 46.44960 | 10.62767 | 34582 ft | 445 kts | 147° |
| 2026-05-06 15:18 | 46.42669 | 10.65784 | 34840 ft | 446 kts | 146° |
| 2026-05-06 15:19 | 46.40366 | 10.68813 | 35063 ft | 447 kts | 146° |
| 2026-05-06 15:19 | 46.38061 | 10.71841 | 35365 ft | 449 kts | 146° |
| 2026-05-06 15:19 | 46.35779 | 10.74839 | 35703 ft | 449 kts | 146° |
| 2026-05-06 15:19 | 46.33464 | 10.77877 | 35998 ft | 450 kts | 146° |
| 2026-05-06 15:20 | 46.31138 | 10.80927 | 36277 ft | 452 kts | 145° |
| 2026-05-06 15:20 | 46.28805 | 10.83980 | 36554 ft | 452 kts | 145° |
| 2026-05-06 15:20 | 46.26474 | 10.87030 | 36805 ft | 452 kts | 145° |
| 2026-05-06 15:20 | 46.24135 | 10.90085 | 36961 ft | 457 kts | 144° |
| 2026-05-06 15:21 | 46.21755 | 10.93186 | 36956 ft | 463 kts | 144° |
| 2026-05-06 15:21 | 46.16936 | 10.99465 | 37087 ft | 468 kts | 144° |
| 2026-05-06 15:21 | 46.14512 | 11.02545 | 37472 ft | 460 kts | 148° |
| 2026-05-06 15:22 | 46.11884 | 11.05047 | 37895 ft | 447 kts | 158° |
| 2026-05-06 15:22 | 46.09082 | 11.06905 | 38285 ft | 439 kts | 165° |
| 2026-05-06 15:22 | 46.06185 | 11.08159 | 38601 ft | 432 kts | 173° |
| 2026-05-06 15:22 | 46.03242 | 11.09020 | 38795 ft | 432 kts | 174° |
| 2026-05-06 15:23 | 46.00279 | 11.09864 | 38915 ft | 436 kts | 174° |
| 2026-05-06 15:23 | 45.94257 | 11.11586 | 38918 ft | 445 kts | 173° |
| 2026-05-06 15:24 | 45.88151 | 11.13373 | 38908 ft | 448 kts | 173° |
| 2026-05-06 15:24 | 45.82027 | 11.15189 | 38912 ft | 451 kts | 173° |
| 2026-05-06 15:25 | 45.75919 | 11.17004 | 38892 ft | 440 kts | 173° |
| 2026-05-06 15:25 | 45.70037 | 11.18752 | 38895 ft | 428 kts | 173° |
| 2026-05-06 15:26 | 45.64228 | 11.20461 | 38898 ft | 425 kts | 173° |
| 2026-05-06 15:26 | 45.58429 | 11.22160 | 38878 ft | 425 kts | 174° |
| 2026-05-06 15:27 | 45.52679 | 11.23845 | 38883 ft | 425 kts | 174° |
| 2026-05-06 15:27 | 45.46879 | 11.25542 | 38876 ft | 425 kts | 174° |
| 2026-05-06 15:28 | 45.41091 | 11.27233 | 38885 ft | 424 kts | 174° |
| 2026-05-06 15:28 | 45.35310 | 11.28920 | 38887 ft | 424 kts | 174° |
| 2026-05-06 15:29 | 45.29520 | 11.30604 | 38877 ft | 425 kts | 174° |
| 2026-05-06 15:29 | 45.23734 | 11.32284 | 38885 ft | 424 kts | 174° |
| 2026-05-06 15:30 | 45.17949 | 11.33961 | 38880 ft | 424 kts | 174° |
| 2026-05-06 15:30 | 45.12164 | 11.35634 | 38892 ft | 424 kts | 174° |
| 2026-05-06 15:31 | 45.06384 | 11.37301 | 38893 ft | 424 kts | 174° |
| 2026-05-06 15:31 | 45.00602 | 11.38966 | 38870 ft | 424 kts | 174° |
| 2026-05-06 15:32 | 44.91916 | 11.41460 | 38896 ft | 425 kts | 174° |
| 2026-05-06 15:32 | 44.86142 | 11.43114 | 38903 ft | 427 kts | 174° |
| 2026-05-06 15:33 | 44.80306 | 11.44782 | 38879 ft | 428 kts | 174° |
| 2026-05-06 15:33 | 44.74459 | 11.46450 | 38875 ft | 429 kts | 175° |
| 2026-05-06 15:34 | 44.68590 | 11.48121 | 38879 ft | 431 kts | 175° |
| 2026-05-06 15:34 | 44.62704 | 11.49793 | 38873 ft | 432 kts | 175° |
| 2026-05-06 15:35 | 44.56813 | 11.51465 | 38878 ft | 430 kts | 175° |
| 2026-05-06 15:35 | 44.50953 | 11.53125 | 38869 ft | 428 kts | 175° |
| 2026-05-06 15:36 | 44.45113 | 11.54775 | 38878 ft | 426 kts | 175° |
| 2026-05-06 15:36 | 44.39306 | 11.56412 | 38887 ft | 424 kts | 175° |
| 2026-05-06 15:37 | 44.33577 | 11.58024 | 38901 ft | 422 kts | 175° |
| 2026-05-06 15:37 | 44.27831 | 11.59636 | 38920 ft | 420 kts | 175° |
| 2026-05-06 15:38 | 44.22114 | 11.61237 | 38914 ft | 418 kts | 175° |
| 2026-05-06 15:38 | 44.16413 | 11.62830 | 38918 ft | 418 kts | 175° |
| 2026-05-06 15:39 | 44.10706 | 11.64422 | 38919 ft | 418 kts | 175° |
| 2026-05-06 15:39 | 44.05038 | 11.65999 | 38924 ft | 418 kts | 175° |
| 2026-05-06 15:40 | 43.99326 | 11.67586 | 38912 ft | 419 kts | 175° |
| 2026-05-06 15:40 | 43.93602 | 11.69173 | 38924 ft | 421 kts | 175° |
| 2026-05-06 15:41 | 43.87837 | 11.70768 | 38937 ft | 423 kts | 175° |
| 2026-05-06 15:41 | 43.82041 | 11.72369 | 38951 ft | 426 kts | 175° |
| 2026-05-06 15:42 | 43.76198 | 11.73980 | 38931 ft | 430 kts | 175° |
| 2026-05-06 15:42 | 43.70307 | 11.75598 | 38936 ft | 433 kts | 175° |
| 2026-05-06 15:43 | 43.64379 | 11.77227 | 38930 ft | 435 kts | 175° |
| 2026-05-06 15:43 | 43.58444 | 11.78858 | 38941 ft | 435 kts | 175° |
| 2026-05-06 15:44 | 43.52529 | 11.80476 | 38936 ft | 436 kts | 175° |
| 2026-05-06 15:44 | 43.46573 | 11.82102 | 38941 ft | 437 kts | 175° |
| 2026-05-06 15:45 | 43.40610 | 11.83728 | 38933 ft | 436 kts | 175° |
| 2026-05-06 15:45 | 43.34656 | 11.85347 | 38933 ft | 436 kts | 175° |
| 2026-05-06 15:46 | 43.28715 | 11.86960 | 38939 ft | 435 kts | 175° |
| 2026-05-06 15:46 | 43.22783 | 11.88566 | 38939 ft | 434 kts | 175° |
| 2026-05-06 15:47 | 43.17860 | 11.89896 | 38935 ft | 434 kts | 175° |
| 2026-05-06 15:47 | 43.11940 | 11.91494 | 38947 ft | 433 kts | 175° |
| 2026-05-06 15:48 | 43.05063 | 11.93345 | 38949 ft | 433 kts | 175° |
| 2026-05-06 15:48 | 43.00101 | 11.94678 | 38943 ft | 433 kts | 175° |
| 2026-05-06 15:49 | 42.94229 | 11.96254 | 38949 ft | 433 kts | 175° |
| 2026-05-06 15:49 | 42.88320 | 11.97836 | 38956 ft | 433 kts | 175° |
| 2026-05-06 15:50 | 42.82407 | 11.99416 | 38956 ft | 433 kts | 175° |
| 2026-05-06 15:50 | 42.76488 | 12.00994 | 38954 ft | 433 kts | 175° |
| 2026-05-06 15:51 | 42.70565 | 12.02572 | 38970 ft | 433 kts | 175° |
| 2026-05-06 15:51 | 42.64648 | 12.04144 | 38984 ft | 434 kts | 175° |
| 2026-05-06 15:52 | 42.58719 | 12.05777 | 38966 ft | 435 kts | 174° |
| 2026-05-06 15:52 | 42.52805 | 12.07609 | 38991 ft | 435 kts | 173° |
| 2026-05-06 15:53 | 42.46903 | 12.09463 | 38994 ft | 436 kts | 173° |
| 2026-05-06 15:53 | 42.40986 | 12.11300 | 38998 ft | 436 kts | 173° |
| 2026-05-06 15:54 | 42.35093 | 12.13110 | 38999 ft | 438 kts | 174° |
| 2026-05-06 15:54 | 42.29141 | 12.14932 | 38984 ft | 439 kts | 174° |
| 2026-05-06 15:55 | 42.23181 | 12.16752 | 38979 ft | 438 kts | 174° |
| 2026-05-06 15:55 | 42.17235 | 12.18563 | 38974 ft | 438 kts | 174° |
| 2026-05-06 15:56 | 42.11290 | 12.20371 | 38996 ft | 439 kts | 174° |
| 2026-05-06 15:56 | 42.05313 | 12.22182 | 38990 ft | 440 kts | 174° |
| 2026-05-06 15:57 | 41.99341 | 12.23994 | 38979 ft | 439 kts | 174° |
| 2026-05-06 15:57 | 41.93386 | 12.25797 | 38980 ft | 437 kts | 174° |
| 2026-05-06 15:58 | 41.87467 | 12.27584 | 38994 ft | 435 kts | 174° |
| 2026-05-06 15:58 | 41.81571 | 12.29361 | 38994 ft | 434 kts | 174° |
| 2026-05-06 15:59 | 41.75687 | 12.31130 | 38994 ft | 433 kts | 174° |
| 2026-05-06 15:59 | 41.69849 | 12.32882 | 39014 ft | 431 kts | 174° |
| 2026-05-06 16:00 | 41.63991 | 12.34637 | 39018 ft | 431 kts | 175° |
| 2026-05-06 16:00 | 41.58131 | 12.36388 | 39043 ft | 432 kts | 174° |
| 2026-05-06 16:01 | 41.52224 | 12.38160 | 39009 ft | 438 kts | 175° |
| 2026-05-06 16:01 | 41.46296 | 12.39924 | 38974 ft | 433 kts | 175° |
| 2026-05-06 16:02 | 41.40497 | 12.41652 | 38967 ft | 429 kts | 175° |
| 2026-05-06 16:02 | 41.34670 | 12.43375 | 38981 ft | 429 kts | 175° |
| 2026-05-06 16:03 | 41.28870 | 12.45089 | 38976 ft | 430 kts | 175° |
| 2026-05-06 16:03 | 41.22993 | 12.46825 | 38984 ft | 431 kts | 175° |
| 2026-05-06 16:04 | 41.17126 | 12.48556 | 38987 ft | 431 kts | 175° |
| 2026-05-06 16:04 | 41.11258 | 12.50285 | 38987 ft | 432 kts | 175° |
| 2026-05-06 16:05 | 41.05376 | 12.52016 | 38977 ft | 433 kts | 175° |
| 2026-05-06 16:05 | 40.99493 | 12.53743 | 38985 ft | 432 kts | 175° |
| 2026-05-06 16:06 | 40.93615 | 12.55466 | 38989 ft | 432 kts | 175° |
| 2026-05-06 16:06 | 40.87742 | 12.57183 | 38988 ft | 432 kts | 175° |
| 2026-05-06 16:07 | 40.81903 | 12.58889 | 38987 ft | 431 kts | 176° |
| 2026-05-06 16:07 | 40.76043 | 12.60597 | 38994 ft | 431 kts | 176° |
| 2026-05-06 16:08 | 40.70187 | 12.62300 | 39000 ft | 431 kts | 176° |
| 2026-05-06 16:08 | 40.64330 | 12.64000 | 38970 ft | 431 kts | 176° |
| 2026-05-06 16:09 | 40.58485 | 12.65696 | 38983 ft | 430 kts | 176° |
| 2026-05-06 16:09 | 40.52654 | 12.67384 | 38990 ft | 429 kts | 176° |
| 2026-05-06 16:10 | 40.46824 | 12.69067 | 38988 ft | 429 kts | 176° |
| 2026-05-06 16:10 | 40.40998 | 12.70746 | 38977 ft | 428 kts | 176° |
| 2026-05-06 16:11 | 40.35218 | 12.72409 | 38989 ft | 428 kts | 176° |
| 2026-05-06 16:11 | 40.29405 | 12.74079 | 38988 ft | 428 kts | 176° |
| 2026-05-06 16:12 | 40.23587 | 12.75747 | 38990 ft | 428 kts | 176° |
| 2026-05-06 16:12 | 40.17767 | 12.77414 | 38967 ft | 428 kts | 176° |
| 2026-05-06 16:13 | 40.11950 | 12.79076 | 38989 ft | 428 kts | 176° |
| 2026-05-06 16:13 | 40.06131 | 12.80736 | 38988 ft | 428 kts | 176° |
| 2026-05-06 16:14 | 40.00306 | 12.82394 | 38989 ft | 429 kts | 176° |
| 2026-05-06 16:14 | 39.94506 | 12.84043 | 38989 ft | 429 kts | 176° |
| 2026-05-06 16:15 | 39.88671 | 12.85699 | 38993 ft | 429 kts | 176° |
| 2026-05-06 16:15 | 39.82827 | 12.87355 | 38989 ft | 430 kts | 176° |
| 2026-05-06 16:16 | 39.76980 | 12.89009 | 38989 ft | 430 kts | 176° |
| 2026-05-06 16:16 | 39.71137 | 12.90658 | 38972 ft | 430 kts | 175° |
| 2026-05-06 16:17 | 39.65287 | 12.92307 | 38980 ft | 430 kts | 175° |
| 2026-05-06 16:17 | 39.59431 | 12.93954 | 38981 ft | 431 kts | 175° |
| 2026-05-06 16:18 | 39.53609 | 12.95589 | 38981 ft | 431 kts | 175° |
| 2026-05-06 16:18 | 39.47738 | 12.97235 | 38971 ft | 431 kts | 175° |
| 2026-05-06 16:19 | 39.41865 | 12.98879 | 38979 ft | 431 kts | 175° |
| 2026-05-06 16:19 | 39.35991 | 13.00520 | 38975 ft | 432 kts | 175° |
| 2026-05-06 16:20 | 39.30117 | 13.02159 | 38975 ft | 432 kts | 175° |
| 2026-05-06 16:20 | 39.24289 | 13.03783 | 38971 ft | 430 kts | 175° |
| 2026-05-06 16:21 | 39.18439 | 13.05410 | 38971 ft | 429 kts | 175° |
| 2026-05-06 16:21 | 39.12603 | 13.07029 | 38972 ft | 428 kts | 175° |
| 2026-05-06 16:22 | 39.06781 | 13.08642 | 38970 ft | 427 kts | 175° |
| 2026-05-06 16:22 | 39.00968 | 13.10249 | 38965 ft | 426 kts | 175° |
| 2026-05-06 16:23 | 38.95206 | 13.11840 | 38967 ft | 426 kts | 175° |
| 2026-05-06 16:23 | 38.89417 | 13.13435 | 38954 ft | 425 kts | 175° |
| 2026-05-06 16:24 | 38.83622 | 13.15028 | 38966 ft | 426 kts | 175° |
| 2026-05-06 16:24 | 38.77812 | 13.16623 | 38962 ft | 427 kts | 175° |
| 2026-05-06 16:25 | 38.71995 | 13.18219 | 38966 ft | 428 kts | 175° |
| 2026-05-06 16:25 | 38.66163 | 13.19816 | 38968 ft | 428 kts | 175° |
| 2026-05-06 16:26 | 38.60328 | 13.21412 | 38960 ft | 429 kts | 175° |
| 2026-05-06 16:26 | 38.54468 | 13.23011 | 38955 ft | 430 kts | 174° |
| 2026-05-06 16:27 | 38.48649 | 13.24596 | 38959 ft | 431 kts | 174° |
| 2026-05-06 16:27 | 38.42780 | 13.26192 | 38956 ft | 432 kts | 174° |
| 2026-05-06 16:28 | 38.36900 | 13.27789 | 38953 ft | 432 kts | 174° |
| 2026-05-06 16:28 | 38.31006 | 13.29387 | 38950 ft | 433 kts | 174° |
| 2026-05-06 16:29 | 38.25097 | 13.30986 | 38963 ft | 434 kts | 174° |
| 2026-05-06 16:29 | 38.19186 | 13.32584 | 38971 ft | 434 kts | 174° |
| 2026-05-06 16:30 | 38.14261 | 13.33912 | 38956 ft | 435 kts | 174° |
| 2026-05-06 16:30 | 38.07361 | 13.35770 | 38964 ft | 436 kts | 175° |
| 2026-05-06 16:31 | 38.01406 | 13.37371 | 38955 ft | 437 kts | 175° |
| 2026-05-06 16:31 | 37.95457 | 13.38968 | 38950 ft | 436 kts | 174° |
| 2026-05-06 16:32 | 37.89518 | 13.40561 | 38963 ft | 436 kts | 174° |
| 2026-05-06 16:32 | 37.83522 | 13.42159 | 38965 ft | 446 kts | 175° |
| 2026-05-06 16:33 | 37.77362 | 13.43799 | 38966 ft | 455 kts | 175° |
| 2026-05-06 16:34 | 37.68057 | 13.46286 | 38949 ft | 456 kts | 174° |
| 2026-05-06 16:34 | 37.62883 | 13.47664 | 38582 ft | 457 kts | 174° |
| 2026-05-06 16:34 | 37.58799 | 13.48754 | 37706 ft | 450 kts | 174° |
| 2026-05-06 16:35 | 37.55753 | 13.49564 | 37107 ft | 445 kts | 174° |
| 2026-05-06 16:35 | 37.52740 | 13.50363 | 36522 ft | 441 kts | 174° |
| 2026-05-06 16:35 | 37.49752 | 13.51155 | 35907 ft | 437 kts | 173° |
| 2026-05-06 16:35 | 37.46777 | 13.51941 | 35220 ft | 436 kts | 173° |
| 2026-05-06 16:36 | 37.44768 | 13.52471 | 34785 ft | 435 kts | 173° |
| 2026-05-06 16:36 | 37.41846 | 13.53242 | 34113 ft | 434 kts | 173° |
| 2026-05-06 16:36 | 37.38858 | 13.54031 | 33326 ft | 433 kts | 172° |
| 2026-05-06 16:36 | 37.35960 | 13.54797 | 32615 ft | 430 kts | 172° |
| 2026-05-06 16:37 | 37.33031 | 13.55570 | 31870 ft | 428 kts | 172° |
| 2026-05-06 16:37 | 37.30126 | 13.56350 | 31104 ft | 426 kts | 171° |
| 2026-05-06 16:37 | 37.27276 | 13.57483 | 30362 ft | 434 kts | 162° |
| 2026-05-06 16:37 | 37.24426 | 13.58975 | 29499 ft | 454 kts | 161° |
| 2026-05-06 16:38 | 37.21474 | 13.60563 | 28503 ft | 467 kts | 160° |
| 2026-05-06 16:38 | 37.18467 | 13.62167 | 27552 ft | 468 kts | 161° |
| 2026-05-06 16:38 | 37.15509 | 13.63713 | 26893 ft | 455 kts | 161° |
| 2026-05-06 16:38 | 37.12606 | 13.65207 | 26219 ft | 445 kts | 161° |
| 2026-05-06 16:39 | 37.09768 | 13.66660 | 25571 ft | 437 kts | 161° |
| 2026-05-06 16:39 | 37.06983 | 13.68092 | 24939 ft | 429 kts | 161° |
| 2026-05-06 16:39 | 37.04241 | 13.69503 | 24317 ft | 423 kts | 161° |
| 2026-05-06 16:39 | 37.01570 | 13.70878 | 23695 ft | 418 kts | 161° |
| 2026-05-06 16:40 | 36.98861 | 13.72267 | 22974 ft | 427 kts | 161° |
| 2026-05-06 16:40 | 36.96084 | 13.73689 | 22271 ft | 433 kts | 162° |
| 2026-05-06 16:40 | 36.93321 | 13.75107 | 21583 ft | 425 kts | 162° |
| 2026-05-06 16:40 | 36.90621 | 13.76496 | 20917 ft | 415 kts | 162° |
| 2026-05-06 16:41 | 36.87984 | 13.77852 | 20295 ft | 406 kts | 163° |
| 2026-05-06 16:41 | 36.85395 | 13.79181 | 19692 ft | 398 kts | 163° |
| 2026-05-06 16:41 | 36.82855 | 13.80482 | 19081 ft | 392 kts | 163° |
| 2026-05-06 16:41 | 36.80337 | 13.81768 | 18472 ft | 389 kts | 163° |
| 2026-05-06 16:42 | 36.77841 | 13.83041 | 17800 ft | 387 kts | 163° |
| 2026-05-06 16:42 | 36.75324 | 13.84320 | 17146 ft | 394 kts | 163° |
| 2026-05-06 16:42 | 36.72786 | 13.85610 | 16496 ft | 392 kts | 163° |
| 2026-05-06 16:42 | 36.70282 | 13.86897 | 15845 ft | 384 kts | 162° |
| 2026-05-06 16:43 | 36.67839 | 13.88145 | 15239 ft | 376 kts | 162° |
| 2026-05-06 16:43 | 36.65440 | 13.89365 | 14645 ft | 368 kts | 162° |
| 2026-05-06 16:43 | 36.63089 | 13.90558 | 14064 ft | 362 kts | 161° |
| 2026-05-06 16:43 | 36.60771 | 13.91735 | 13441 ft | 357 kts | 161° |
| 2026-05-06 16:44 | 36.58492 | 13.92892 | 12821 ft | 352 kts | 161° |
| 2026-05-06 16:44 | 36.56228 | 13.94041 | 12230 ft | 351 kts | 161° |
| 2026-05-06 16:44 | 36.53968 | 13.95187 | 11635 ft | 350 kts | 161° |
| 2026-05-06 16:44 | 36.51691 | 13.96341 | 11059 ft | 356 kts | 161° |
| 2026-05-06 16:45 | 36.49429 | 13.97489 | 10883 ft | 350 kts | 161° |
| 2026-05-06 16:45 | 36.47208 | 13.98612 | 10708 ft | 337 kts | 160° |
| 2026-05-06 16:45 | 36.45096 | 13.99689 | 10568 ft | 319 kts | 161° |
| 2026-05-06 16:45 | 36.43092 | 14.00705 | 10436 ft | 304 kts | 161° |
| 2026-05-06 16:46 | 36.41183 | 14.01672 | 10315 ft | 290 kts | 161° |
| 2026-05-06 16:46 | 36.39356 | 14.02595 | 10186 ft | 277 kts | 161° |
| 2026-05-06 16:46 | 36.37609 | 14.03477 | 10072 ft | 266 kts | 161° |
| 2026-05-06 16:46 | 36.35948 | 14.04314 | 9966 ft | 256 kts | 161° |
| 2026-05-06 16:47 | 36.34298 | 14.05143 | 9747 ft | 251 kts | 161° |
| 2026-05-06 16:47 | 36.32684 | 14.05954 | 9465 ft | 250 kts | 161° |
| 2026-05-06 16:47 | 36.31084 | 14.06752 | 9203 ft | 253 kts | 161° |
| 2026-05-06 16:47 | 36.29444 | 14.07576 | 8920 ft | 255 kts | 161° |
| 2026-05-06 16:48 | 36.27814 | 14.08397 | 8623 ft | 252 kts | 160° |
| 2026-05-06 16:48 | 36.26197 | 14.09211 | 8323 ft | 250 kts | 160° |
| 2026-05-06 16:48 | 36.24590 | 14.10020 | 8015 ft | 248 kts | 159° |
| 2026-05-06 16:48 | 36.22993 | 14.10823 | 7736 ft | 247 kts | 159° |
| 2026-05-06 16:49 | 36.21403 | 14.11622 | 7447 ft | 246 kts | 160° |
| 2026-05-06 16:49 | 36.19824 | 14.12413 | 7156 ft | 244 kts | 159° |
| 2026-05-06 16:49 | 36.18252 | 14.13205 | 6863 ft | 243 kts | 159° |
| 2026-05-06 16:49 | 36.16687 | 14.13991 | 6585 ft | 242 kts | 159° |
| 2026-05-06 16:50 | 36.15131 | 14.14772 | 6317 ft | 241 kts | 159° |
| 2026-05-06 16:50 | 36.13586 | 14.15546 | 6037 ft | 238 kts | 159° |
| 2026-05-06 16:50 | 36.12055 | 14.16314 | 5781 ft | 235 kts | 159° |
| 2026-05-06 16:50 | 36.10556 | 14.17066 | 5628 ft | 227 kts | 159° |
| 2026-05-06 16:51 | 36.09118 | 14.17787 | 5502 ft | 219 kts | 159° |
| 2026-05-06 16:51 | 36.07732 | 14.18479 | 5407 ft | 211 kts | 159° |
| 2026-05-06 16:51 | 36.06403 | 14.19143 | 5322 ft | 202 kts | 159° |
| 2026-05-06 16:51 | 36.05122 | 14.19782 | 5239 ft | 203 kts | 159° |
| 2026-05-06 16:52 | 36.03894 | 14.20693 | 5151 ft | 205 kts | 133° |
| 2026-05-06 16:52 | 36.03195 | 14.22131 | 5113 ft | 195 kts | 116° |
| 2026-05-06 16:52 | 36.02742 | 14.23685 | 4936 ft | 190 kts | 115° |
| 2026-05-06 16:52 | 36.02296 | 14.25227 | 4764 ft | 190 kts | 113° |
| 2026-05-06 16:53 | 36.01863 | 14.26735 | 4549 ft | 182 kts | 114° |
| 2026-05-06 16:53 | 36.01404 | 14.28172 | 4345 ft | 178 kts | 124° |
| 2026-05-06 16:53 | 36.00580 | 14.29268 | 4184 ft | 171 kts | 139° |
| 2026-05-06 16:53 | 35.99742 | 14.30296 | 4066 ft | 171 kts | 136° |
| 2026-05-06 16:54 | 35.98909 | 14.31341 | 3870 ft | 169 kts | 136° |
| 2026-05-06 16:54 | 35.98092 | 14.32361 | 3657 ft | 164 kts | 135° |
| 2026-05-06 16:54 | 35.97303 | 14.33344 | 3435 ft | 158 kts | 135° |
| 2026-05-06 16:54 | 35.96537 | 14.34298 | 3224 ft | 155 kts | 135° |
| 2026-05-06 16:55 | 35.95797 | 14.35218 | 3013 ft | 147 kts | 136° |
| 2026-05-06 16:55 | 35.95100 | 14.36086 | 2888 ft | 145 kts | 135° |
| 2026-05-06 16:55 | 35.94382 | 14.36979 | 2674 ft | 145 kts | 136° |
| 2026-05-06 16:55 | 35.93691 | 14.37839 | 2486 ft | 136 kts | 136° |
| 2026-05-06 16:56 | 35.93036 | 14.38654 | 2328 ft | 133 kts | 135° |
| 2026-05-06 16:56 | 35.92399 | 14.39447 | 2157 ft | 130 kts | 135° |
| 2026-05-06 16:56 | 35.91764 | 14.40239 | 1975 ft | 130 kts | 135° |
| 2026-05-06 16:56 | 35.91149 | 14.41004 | 1830 ft | 124 kts | 134° |
| 2026-05-06 16:57 | 35.90539 | 14.41763 | 1646 ft | 124 kts | 134° |
| 2026-05-06 16:57 | 35.89946 | 14.42503 | 1478 ft | 119 kts | 134° |
| 2026-05-06 16:57 | 35.89367 | 14.43226 | 1329 ft | 118 kts | 136° |
| 2026-05-06 16:57 | 35.88784 | 14.43950 | 1176 ft | 120 kts | 135° |
| 2026-05-06 16:58 | 35.88197 | 14.44685 | 998 ft | 120 kts | 134° |
| 2026-05-06 16:58 | 35.87617 | 14.45405 | 844 ft | 118 kts | 131° |
| 2026-05-06 16:58 | 35.87045 | 14.46116 | 700 ft | 115 kts | 129° |
| 2026-05-06 16:58 | 35.86503 | 14.46777 | 581 ft | 105 kts | 122° |
| 2026-05-06 16:59 | 35.86015 | 14.47410 | 461 ft | 101 kts | 135° |
| 2026-05-06 16:59 | 35.85511 | 14.48027 | 305 ft | 102 kts | 126° |
| 2026-05-06 16:59 | 35.85036 | 14.48638 | 266 ft | 92 kts | 133° |
| 2026-05-06 16:59 | 35.84669 | 14.49093 | 258 ft | 63 kts | 133° |
| 2026-05-06 17:00 | 35.84462 | 14.49428 | 258 ft | 24 kts | 104° |
| 2026-05-06 17:00 | 35.84446 | 14.49509 | 258 ft | 5 kts | 95° |
| 2026-05-06 17:00 | 35.84458 | 14.49553 | 258 ft | 6 kts | 53° |
| 2026-05-06 17:00 | 35.84493 | 14.49573 | 258 ft | 6 kts | 7° |
| 2026-05-06 17:01 | 35.84529 | 14.49558 | 258 ft | 6 kts | 321° |
| 2026-05-06 17:01 | 35.84568 | 14.49529 | 258 ft | 7 kts | 351° |
| 2026-05-06 17:01 | 35.84613 | 14.49557 | 258 ft | 8 kts | 32° |
| 2026-05-06 17:01 | 35.84667 | 14.49561 | 258 ft | 8 kts | 358° |
| 2026-05-06 17:02 | 35.84721 | 14.49530 | 258 ft | 9 kts | 327° |
| 2026-05-06 17:02 | 35.84787 | 14.49515 | 258 ft | 10 kts | 358° |
| 2026-05-06 17:02 | 35.84810 | 14.49514 | 258 ft | 0 kts | 359° |